Depesze METAR z lotnisk oddalonych od Rybnika do 200 kilometrów

LKMT - Ostrava/Mosnov, Czech Republic
Distance from station: SSW 55km
Aktualizacja: Sun, 24/02/2019 05:00 CET
Partly Cloudy
Partly Cloudy
 Wind from varies
Wiatr: varies 4 km/h
Temperatura: -5°C
Punkt rosy: -7°C
Wilgotnosc: 86%
Cisnienie: 1039 hPa
Chmury: Partly Cloudy
Widocznosc: 7 km
2019/02/24 04:00 LKMT 240400Z VRB02KT 7000 NSC M05/M07 Q1039 NOSIG
EPKT - Katowice/Pyrzowi, Poland
Distance from station: NE 58km
Aktualizacja: Sun, 24/02/2019 05:00 CET
Few Clouds
Few Clouds
 Wind from WSW
Wiatr: WSW 6 km/h
Temperatura: -3°C
Punkt rosy: -9°C
Wilgotnosc: 64%
Cisnienie: 1038 hPa
Chmury: Few Clouds
Widocznosc: 6 km
Chmury-opis: Few Clouds 1311 m
2019/02/24 04:00 EPKT 240400Z 24003KT 6000 FEW043 M03/M09 Q1038
 
EPKK - Krakow/Balice, Poland
Distance from station: E 91km
Aktualizacja: Sun, 24/02/2019 05:00 CET
Mostly Cloudy
Mostly Cloudy
 Wind from SSW
Wiatr: SSW 9 km/h
Temperatura: -3°C
Wind Chill: -7°C
Punkt rosy: -7°C
Wilgotnosc: 74%
Cisnienie: 1038 hPa
Chmury: Mostly Cloudy
Widocznosc: 10 km
Chmury-opis: Mostly Cloudy 1829 m
2019/02/24 04:00 EPKK 240400Z 21005KT 180V240 9999 BKN060 M03/M07 Q1038
LZZI - Zilina, Slovakia
Distance from station: S 95km
Aktualizacja: Sun, 24/02/2019 05:00 CET
Clear
Clear
 Wind from varies
Wiatr: varies 4 km/h
Temperatura: -5°C
Punkt rosy: -9°C
Wilgotnosc: 74%
Cisnienie: 1038 hPa
Kondycja: Clear
Widocznosc: greater than 10 km
2019/02/24 04:00 LZZI 240400Z VRB02KT CAVOK M05/M09 Q1038
 
LKKU - Kunovice, Czech Republic
Distance from station: SW 139km
Aktualizacja: Sat, 23/02/2019 13:00 CET
NOT Current
Clear
Clear
 Wind from N
Wiatr: N 26 km/h
Temperatura: -1°C
Wind Chill: -7°C
Punkt rosy: -11°C
Wilgotnosc: 47%
Cisnienie: 1042 hPa
Kondycja: Clear
Widocznosc: greater than 10 km
2019/02/23 12:00 LKKU 231200Z 01014KT CAVOK M01/M11 Q1042
EPWR - Wroclaw/Strachow, Poland
Distance from station: NW 163km
Aktualizacja: Sun, 24/02/2019 05:00 CET
Clear
Clear
 Wind from varies
Wiatr: varies 4 km/h
Temperatura: -4°C
Punkt rosy: -6°C
Wilgotnosc: 86%
Cisnienie: 1039 hPa
Kondycja: Clear
Widocznosc: greater than 10 km
2019/02/24 04:00 EPWR 240400Z VRB02KT CAVOK M04/M06 Q1039
 
LZSL - Sliac, Slovakia
Distance from station: SSE 168km
Aktualizacja: Sun, 24/02/2019 05:00 CET
Clear
Clear
 Wind from calm
Wiatr: Calm
Temperatura: -6°C
Punkt rosy: -9°C
Wilgotnosc: 80%
Cisnienie: 1039 hPa
Kondycja: Clear
Widocznosc: greater than 10 km
2019/02/24 04:00 LZSL 240400Z 00000KT CAVOK M06/M09 Q1039
LZTT - Poprad/Tatry, Slovakia
Distance from station: SE 168km
Aktualizacja: Sun, 24/02/2019 05:00 CET
Overcast
Overcast
 Wind from WSW
Wiatr: WSW 15 km/h
Temperatura: -6°C
Wind Chill: -12°C
Punkt rosy: -14°C
Wilgotnosc: 54%
Cisnienie: 1034 hPa
Chmury: Overcast
Widocznosc: 10 km
Chmury-opis: Overcast 1829 m
2019/02/24 04:00 LZTT 240400Z 25008KT 9999 OVC060 M06/M14 Q1034
 
LKTB - Brno/Turany, Czech Republic
Distance from station: SW 170km
Aktualizacja: Sun, 24/02/2019 05:00 CET
Clear
Clear
 Wind from NW
Wiatr: NW 7 km/h
Temperatura: -5°C
Wind Chill: -8°C
Punkt rosy: -9°C
Wilgotnosc: 74%
Cisnienie: 1039 hPa
Kondycja: Clear
Widocznosc: greater than 10 km
2019/02/24 04:00 LKTB 240400Z 31004KT CAVOK M05/M09 Q1039 NOSIG
LZPP - Piestany, Slovakia
Distance from station: SSW 171km
Aktualizacja: Sun, 24/02/2019 05:00 CET
Overcast
Overcast
 Wind from varies
Wiatr: varies 2 km/h
Temperatura: -7°C
Punkt rosy: -9°C
Wilgotnosc: 86%
Cisnienie: 1040 hPa
Chmury: Overcast
Widocznosc: 10 km
Chmury-opis: Overcast 3048 m
2019/02/24 04:00 LZPP 240400Z AUTO VRB01KT 9999 OVC100/// M07/M09 Q1040
 
EPLL - Lodz/Lublinek, Poland
Distance from station: NNE 191km
Aktualizacja: Sun, 24/02/2019 05:00 CET
Overcast
Overcast
 Wind from W
Wiatr: W 13 km/h
Temperatura: -2°C
Wind Chill: -7°C
Punkt rosy: -8°C
Wilgotnosc: 64%
Cisnienie: 1038 hPa
Chmury: Overcast
Widocznosc: 10 km
Chmury-opis: Overcast 1158 m
2019/02/24 04:00 EPLL 240400Z 27007KT 9999 OVC038 M02/M08 Q1038
LKPD - Pardubice, Czech Republic
Distance from station: W 200km
Aktualizacja: Sun, 24/02/2019 05:00 CET
Clear
Clear
 Wind from WSW
Wiatr: WSW 6 km/h
Temperatura: -5°C
Punkt rosy: -7°C
Wilgotnosc: 86%
Cisnienie: 1039 hPa
Kondycja: Clear
Widocznosc: greater than 10 km
2019/02/24 04:00 LKPD 240400Z 25003KT 220V290 CAVOK M05/M07 Q1039 NOSIG RMK BLU BLU

Metar display script from Saratoga-Weather.org